Time;durP1;ratioP1;P1;durP2;ratioP2;P2;SDS_P1;SDS_P2;PMS_P1;PMS_P2;Temp;Humidity;BMP_temperature;BMP_pressure;BME280_temperature;BME280_humidity;BME280_pressure;Samples;Min_cycle;Max_cycle;Signal;HPM_P1;HPM_P2
2022/05/28 00:01:06;;;;;;;;;9.33;7.00;;;;;16.33;51.41;102149.47;5067953;28;45651;-60
2022/05/28 00:03:32;;;;;;;;;5.67;5.67;;;;;16.33;51.28;102141.41;5061633;28;45431;-60
2022/05/28 00:05:57;;;;;;;;;10.00;6.00;;;;;16.32;51.22;102139.72;5057524;28;45439;-60
2022/05/28 00:08:24;;;;;;;;;6.67;6.67;;;;;16.31;51.49;102143.34;5064440;28;46983;-60
2022/05/28 00:10:50;;;;;;;;;6.33;6.00;;;;;16.26;50.95;102142.72;5055185;28;45812;-60
2022/05/28 00:13:16;;;;;;;;;9.00;6.67;;;;;16.20;51.77;102145.72;5058903;28;45473;-60
2022/05/28 00:15:41;;;;;;;;;8.33;7.67;;;;;16.12;51.41;102142.56;5056647;28;61775;-60
2022/05/28 00:18:07;;;;;;;;;4.67;4.33;;;;;16.03;51.22;102144.81;5058809;28;46137;-60
2022/05/28 00:20:33;;;;;;;;;7.33;6.00;;;;;15.94;52.12;102141.72;5063060;28;45434;-60
2022/05/28 00:22:58;;;;;;;;;7.33;6.67;;;;;15.84;52.36;102141.31;5074858;28;45556;-60
2022/05/28 00:25:24;;;;;;;;;6.67;6.00;;;;;15.77;52.18;102138.03;5070539;28;45232;-60
2022/05/28 00:27:49;;;;;;;;;9.00;9.00;;;;;15.71;52.68;102130.31;5064656;28;46260;-60
2022/05/28 00:30:16;;;;;;;;;4.00;4.00;;;;;15.64;52.76;102129.72;5061232;28;65298;-60
2022/05/28 00:32:42;;;;;;;;;6.33;4.67;;;;;15.61;52.79;102135.25;5074381;28;45346;-60
2022/05/28 00:35:11;;;;;;;;;10.67;5.67;;;;;15.57;53.48;102133.69;5066950;28;45588;-60
2022/05/28 00:37:37;;;;;;;;;6.00;4.33;;;;;15.53;52.98;102134.78;5077802;28;47066;-60
2022/05/28 00:40:07;;;;;;;;;10.33;7.33;;;;;15.50;52.86;102132.25;5065644;28;45406;-60
2022/05/28 00:42:32;;;;;;;;;8.00;6.33;;;;;15.48;52.75;102126.09;5073202;28;45358;-60
2022/05/28 00:44:58;;;;;;;;;10.00;8.00;;;;;15.46;52.83;102128.88;5053401;28;45455;-60
2022/05/28 00:47:24;;;;;;;;;7.67;7.67;;;;;15.45;53.46;102123.56;5062596;28;67359;-60
2022/05/28 00:49:50;;;;;;;;;3.33;2.67;;;;;15.43;53.16;102130.81;5064874;28;45450;-60
2022/05/28 00:52:17;;;;;;;;;5.00;4.67;;;;;15.38;53.19;102129.25;5050929;28;60045;-60
2022/05/28 00:54:44;;;;;;;;;9.00;7.00;;;;;15.35;53.39;102123.16;5049792;28;45252;-59
2022/05/28 00:57:10;;;;;;;;;8.67;7.33;;;;;15.34;54.08;102127.66;5063725;28;46763;-60
2022/05/28 00:59:36;;;;;;;;;7.00;6.67;;;;;15.29;53.73;102126.13;5045926;28;45478;-60
2022/05/28 01:02:13;;;;;;;;;6.67;6.67;;;;;15.26;54.15;102120.94;5068190;28;45529;-60
2022/05/28 01:04:50;;;;;;;;;7.00;7.00;;;;;15.24;53.98;102125.50;5045596;28;45702;-60
2022/05/28 01:07:27;;;;;;;;;9.33;7.67;;;;;15.19;54.19;102117.69;5064578;28;46965;-60
2022/05/28 01:10:10;;;;;;;;;10.33;7.00;;;;;15.19;53.86;102123.91;5051327;28;45376;-60
2022/05/28 01:12:44;;;;;;;;;9.33;7.00;;;;;15.16;53.95;102120.50;5065542;28;45538;-60
2022/05/28 01:15:16;;;;;;;;;8.00;6.33;;;;;15.13;54.02;102120.66;5064381;28;45209;-60
2022/05/28 01:17:46;;;;;;;;;7.67;7.00;;;;;15.09;54.35;102109.22;5063311;28;45445;-60
2022/05/28 01:20:22;;;;;;;;;8.00;7.67;;;;;15.05;54.54;102113.00;5046264;28;45315;-60
2022/05/28 01:22:53;;;;;;;;;6.67;5.67;;;;;15.01;54.19;102114.09;5052522;28;45356;-60
2022/05/28 01:25:24;;;;;;;;;14.00;10.33;;;;;14.96;54.44;102110.75;5069917;28;45481;-60
2022/05/28 01:27:57;;;;;;;;;9.33;9.33;;;;;14.91;54.48;102108.28;5071829;28;45352;-60
2022/05/28 01:30:23;;;;;;;;;10.67;7.00;;;;;14.86;54.57;102107.63;5041218;28;45381;-59
2022/05/28 01:32:51;;;;;;;;;8.33;6.67;;;;;14.82;54.76;102108.72;5065669;28;45640;-60
2022/05/28 01:35:18;;;;;;;;;8.00;8.00;;;;;14.76;55.09;102104.53;5044271;28;45347;-60
2022/05/28 01:37:45;;;;;;;;;7.00;7.00;;;;;14.74;55.19;102100.19;5057798;28;46220;-59
2022/05/28 01:40:11;;;;;;;;;11.00;8.33;;;;;14.72;55.61;102102.94;5067346;28;45356;-60
2022/05/28 01:42:39;;;;;;;;;10.00;8.00;;;;;14.68;55.37;102096.00;5037201;28;45285;-59
2022/05/28 01:45:06;;;;;;;;;7.67;6.33;;;;;14.64;55.71;102105.09;5075976;27;45891;-60
2022/05/28 01:47:33;;;;;;;;;8.00;7.67;;;;;14.61;56.17;102095.34;5060468;28;45924;-60
2022/05/28 01:50:00;;;;;;;;;8.00;6.33;;;;;14.60;55.89;102101.69;5050086;28;45613;-59
2022/05/28 01:52:27;;;;;;;;;6.00;5.67;;;;;14.58;56.09;102094.66;5062416;28;45166;-59
2022/05/28 01:54:52;;;;;;;;;8.00;7.00;;;;;14.54;56.51;102094.78;5036230;28;45628;-60
2022/05/28 01:57:18;;;;;;;;;8.67;7.00;;;;;14.53;56.09;102095.72;5058916;28;66713;-59
2022/05/28 01:59:44;;;;;;;;;9.00;7.00;;;;;14.54;56.38;102093.91;5057996;28;45433;-60
2022/05/28 02:02:11;;;;;;;;;6.67;6.33;;;;;14.52;56.12;102093.13;5066822;28;45358;-60
2022/05/28 02:04:38;;;;;;;;;11.00;9.67;;;;;14.54;56.38;102091.25;5054443;28;45505;-60
2022/05/28 02:07:05;;;;;;;;;7.00;7.00;;;;;14.53;56.95;102089.50;5060688;28;46130;-60
2022/05/28 02:09:37;;;;;;;;;7.67;6.67;;;;;14.49;56.57;102085.22;5044275;28;45337;-60
2022/05/28 02:12:09;;;;;;;;;7.67;7.67;;;;;14.46;56.61;102088.06;5043986;28;45383;-60
2022/05/28 02:14:55;;;;;;;;;8.67;7.67;;;;;14.44;56.92;102077.41;5066954;28;45448;-60
2022/05/28 02:17:39;;;;;;;;;9.00;8.33;;;;;14.43;57.61;102081.03;5059950;28;46364;-59
2022/05/28 02:20:14;;;;;;;;;9.00;8.00;;;;;14.38;56.92;102075.88;5066630;28;45322;-60
2022/05/28 02:22:42;;;;;;;;;6.33;6.33;;;;;14.36;56.96;102076.91;5048895;28;45339;-60
2022/05/28 02:25:13;;;;;;;;;8.33;7.33;;;;;14.33;56.72;102072.56;5058693;28;45574;-60
2022/05/28 02:27:40;;;;;;;;;8.33;7.67;;;;;14.31;57.25;102065.53;5064253;28;45363;-59
2022/05/28 02:30:06;;;;;;;;;9.00;8.67;;;;;14.29;57.13;102076.31;5047999;28;45378;-59
2022/05/28 02:32:31;;;;;;;;;11.33;9.67;;;;;14.25;57.70;102066.69;5060494;28;45466;-60
2022/05/28 02:34:57;;;;;;;;;8.33;8.33;;;;;14.22;57.57;102064.13;5057603;28;60953;-60
2022/05/28 02:37:25;;;;;;;;;7.00;4.33;;;;;14.22;57.73;102058.78;5060097;28;57681;-60
2022/05/28 02:39:50;;;;;;;;;9.33;9.33;;;;;14.19;57.89;102059.78;5058672;28;45670;-60
2022/05/28 02:42:16;;;;;;;;;9.67;9.00;;;;;14.19;57.53;102062.47;5067286;28;45336;-60
2022/05/28 02:44:41;;;;;;;;;9.33;9.33;;;;;14.18;57.71;102059.88;5060467;28;45462;-60
2022/05/28 02:47:07;;;;;;;;;16.33;14.00;;;;;14.17;57.84;102059.00;5066654;28;67439;-60
2022/05/28 02:49:33;;;;;;;;;11.00;9.00;;;;;14.15;57.75;102062.69;5057624;28;45339;-60
2022/05/28 02:52:04;;;;;;;;;9.00;9.00;;;;;14.12;57.75;102058.34;5060260;28;46230;-60
2022/05/28 02:54:29;;;;;;;;;12.67;9.33;;;;;14.09;57.98;102060.28;5064310;28;45296;-60
2022/05/28 02:56:55;;;;;;;;;12.00;7.67;;;;;14.06;57.92;102059.47;5056446;28;46076;-60
2022/05/28 02:59:20;;;;;;;;;10.00;9.00;;;;;14.05;58.09;102055.09;5047037;28;45422;-60
2022/05/28 03:01:46;;;;;;;;;8.00;7.33;;;;;14.03;58.11;102059.63;5067796;28;45299;-61
2022/05/28 03:04:11;;;;;;;;;11.33;8.00;;;;;14.00;58.36;102057.09;5058113;28;61112;-60
2022/05/28 03:06:37;;;;;;;;;10.67;8.00;;;;;13.97;58.26;102054.53;5068173;28;60718;-60
2022/05/28 03:09:06;;;;;;;;;10.33;8.00;;;;;13.96;58.52;102060.84;5061545;28;45178;-60
2022/05/28 03:11:32;;;;;;;;;10.33;9.00;;;;;13.95;58.33;102063.56;5064175;28;45455;-60
2022/05/28 03:13:58;;;;;;;;;9.67;8.00;;;;;13.92;58.47;102061.88;5059189;28;45466;-60
2022/05/28 03:16:23;;;;;;;;;11.00;9.00;;;;;13.88;58.65;102062.97;5058863;28;58291;-61
2022/05/28 03:18:49;;;;;;;;;8.33;7.00;;;;;13.87;58.94;102058.53;5055696;28;66716;-61
2022/05/28 03:21:14;;;;;;;;;11.67;9.00;;;;;13.83;58.84;102059.63;5074390;28;45388;-61
2022/05/28 03:23:40;;;;;;;;;10.33;9.67;;;;;13.80;58.88;102057.09;5074970;28;45608;-60
2022/05/28 03:26:21;;;;;;;;;10.00;7.67;;;;;13.80;59.03;102059.78;5059016;28;45931;-61
2022/05/28 03:28:48;;;;;;;;;11.33;9.67;;;;;13.79;58.97;102056.22;5059197;28;45410;-61
2022/05/28 03:31:14;;;;;;;;;9.00;8.67;;;;;13.79;59.09;102066.03;5062552;28;45525;-61
2022/05/28 03:33:39;;;;;;;;;8.33;8.00;;;;;13.77;59.08;102055.44;5058344;28;45336;-61
2022/05/28 03:36:05;;;;;;;;;7.67;7.67;;;;;13.75;59.67;102061.78;5058597;28;47174;-61
2022/05/28 03:38:31;;;;;;;;;10.33;9.67;;;;;13.71;59.93;102064.59;5057398;28;45321;-61
2022/05/28 03:40:58;;;;;;;;;9.67;9.67;;;;;13.65;59.39;102062.19;5070506;28;45236;-61
2022/05/28 03:43:24;;;;;;;;;12.33;9.67;;;;;13.60;59.86;102058.81;5058174;28;45237;-61
2022/05/28 03:45:50;;;;;;;;;13.00;10.33;;;;;13.58;59.60;102055.34;5058859;28;45759;-61
2022/05/28 03:48:15;;;;;;;;;11.67;11.33;;;;;13.59;59.57;102061.56;5064089;28;45966;-61
2022/05/28 03:50:40;;;;;;;;;11.00;10.67;;;;;13.58;60.66;102063.34;5061901;28;59310;-61
2022/05/28 03:53:06;;;;;;;;;13.67;9.33;;;;;13.53;60.98;102065.34;5059262;28;45295;-60
2022/05/28 03:55:31;;;;;;;;;10.00;10.00;;;;;13.49;59.93;102074.44;5057400;28;68513;-61
2022/05/28 03:57:56;;;;;;;;;13.00;11.00;;;;;13.45;60.10;102073.69;5057802;28;63022;-61
2022/05/28 04:00:22;;;;;;;;;10.00;8.33;;;;;13.41;60.66;102080.09;5061134;28;59449;-61
2022/05/28 04:02:47;;;;;;;;;12.67;8.67;;;;;13.37;60.04;102076.69;5058211;28;63525;-61
2022/05/28 04:05:13;;;;;;;;;10.67;9.67;;;;;13.35;60.92;102085.66;5058939;28;45375;-61
2022/05/28 04:07:39;;;;;;;;;9.33;8.00;;;;;13.29;60.74;102076.09;5058791;28;45331;-61
2022/05/28 04:10:06;;;;;;;;;9.67;9.67;;;;;13.29;61.24;102080.59;5059491;28;45276;-61
2022/05/28 04:12:31;;;;;;;;;12.67;9.00;;;;;13.29;60.67;102077.94;5069120;28;45506;-61
2022/05/28 04:14:57;;;;;;;;;12.67;10.67;;;;;13.30;61.73;102085.88;5057199;28;65567;-61
2022/05/28 04:17:22;;;;;;;;;9.67;8.67;;;;;13.26;61.01;102084.25;5058833;28;45451;-61
2022/05/28 04:19:47;;;;;;;;;9.33;9.33;;;;;13.23;60.95;102087.03;5057861;28;59570;-61
2022/05/28 04:22:13;;;;;;;;;14.67;10.33;;;;;13.24;60.52;102083.44;5065859;28;63809;-61
2022/05/28 04:24:39;;;;;;;;;9.00;9.00;;;;;13.23;61.49;102089.72;5057547;28;46207;-61
2022/05/28 04:27:04;;;;;;;;;12.00;11.67;;;;;13.20;61.00;102090.72;5060054;28;63612;-61
2022/05/28 04:29:30;;;;;;;;;11.33;9.33;;;;;13.22;60.96;102085.31;5061194;28;45638;-61
2022/05/28 04:31:55;;;;;;;;;13.67;9.33;;;;;13.22;61.69;102085.31;5066200;28;60091;-61
2022/05/28 04:34:20;;;;;;;;;12.33;9.33;;;;;13.23;60.80;102089.72;5074599;28;67048;-61
2022/05/28 04:36:46;;;;;;;;;12.00;11.33;;;;;13.24;60.77;102088.78;5060542;28;62072;-60
2022/05/28 04:39:11;;;;;;;;;11.33;10.00;;;;;13.23;61.12;102081.69;5061289;28;45904;-60
2022/05/28 04:41:36;;;;;;;;;9.67;9.67;;;;;13.23;61.03;102092.38;5050856;28;56123;-60
2022/05/28 04:44:02;;;;;;;;;11.67;9.00;;;;;13.26;60.98;102089.59;5062646;28;63563;-60
2022/05/28 04:46:27;;;;;;;;;10.33;9.00;;;;;13.29;60.96;102085.94;5058947;28;45370;-61
2022/05/28 04:48:53;;;;;;;;;14.00;11.00;;;;;13.31;61.16;102092.97;5058673;28;60759;-60
2022/05/28 04:51:19;;;;;;;;;9.67;9.00;;;;;13.35;60.94;102089.22;5059248;28;45536;-60
2022/05/28 04:53:45;;;;;;;;;14.67;8.67;;;;;13.39;60.78;102093.53;5056033;28;64078;-60
2022/05/28 04:56:11;;;;;;;;;10.67;10.67;;;;;13.44;60.91;102093.38;5046524;28;45346;-60
2022/05/28 04:58:36;;;;;;;;;14.00;10.00;;;;;13.46;60.65;102093.28;5062347;28;45913;-61
2022/05/28 05:01:02;;;;;;;;;13.00;10.67;;;;;13.46;60.91;102091.47;5040922;28;45252;-61
2022/05/28 05:03:27;;;;;;;;;13.67;11.00;;;;;13.51;60.70;102092.16;5058192;28;53722;-61
2022/05/28 05:05:52;;;;;;;;;14.67;11.33;;;;;13.53;60.64;102101.00;5060267;28;61153;-61
2022/05/28 05:08:18;;;;;;;;;24.33;16.67;;;;;13.57;60.70;102091.00;5064787;28;61355;-61
2022/05/28 05:10:45;;;;;;;;;16.33;14.00;;;;;13.57;60.70;102091.91;5060726;28;59170;-61
2022/05/28 05:13:10;;;;;;;;;10.00;9.67;;;;;13.57;60.56;102102.59;5060669;28;45344;-61
2022/05/28 05:15:37;;;;;;;;;19.67;15.00;;;;;13.60;60.93;102098.94;5061446;28;45287;-61
2022/05/28 05:18:03;;;;;;;;;11.67;9.33;;;;;13.55;60.98;102093.75;5064508;28;45506;-61
2022/05/28 05:20:28;;;;;;;;;10.67;10.67;;;;;13.53;60.96;102095.66;5060415;28;45398;-61
2022/05/28 05:22:55;;;;;;;;;14.67;12.00;;;;;13.51;60.75;102091.28;5059179;28;67182;-60
2022/05/28 05:25:20;;;;;;;;;14.67;12.33;;;;;13.51;60.74;102100.19;5067519;28;45476;-60
2022/05/28 05:27:46;;;;;;;;;10.00;10.00;;;;;13.53;60.72;102098.31;5063729;28;45693;-60
2022/05/28 05:30:11;;;;;;;;;12.00;10.00;;;;;13.53;60.37;102095.66;5060905;28;58430;-60
2022/05/28 05:32:37;;;;;;;;;17.00;9.00;;;;;13.53;60.76;102095.66;5065141;28;45418;-60
2022/05/28 05:35:02;;;;;;;;;12.33;9.00;;;;;13.55;60.83;102096.44;5061230;28;45496;-60
2022/05/28 05:37:28;;;;;;;;;12.33;10.67;;;;;13.59;60.96;102089.16;5062636;28;45261;-61
2022/05/28 05:39:53;;;;;;;;;14.67;9.67;;;;;13.60;60.71;102087.34;5063298;28;58989;-61
2022/05/28 05:42:18;;;;;;;;;17.00;13.67;;;;;13.62;61.02;102088.16;5066089;28;65274;-61
2022/05/28 05:44:44;;;;;;;;;13.33;12.33;;;;;13.64;60.90;102094.31;5064768;28;48906;-61
2022/05/28 05:47:09;;;;;;;;;14.33;11.00;;;;;13.64;60.88;102091.66;5061229;28;45278;-61
2022/05/28 05:49:35;;;;;;;;;14.00;9.67;;;;;13.68;61.09;102091.44;5059304;28;61236;-61
2022/05/28 05:52:00;;;;;;;;;19.00;16.00;;;;;13.74;60.85;102095.69;5048298;28;45982;-61
2022/05/28 05:54:26;;;;;;;;;15.67;15.33;;;;;13.77;61.09;102100.03;5057839;28;46394;-61
2022/05/28 05:56:52;;;;;;;;;11.00;11.00;;;;;13.80;60.70;102094.53;5060707;28;45823;-61
2022/05/28 05:59:18;;;;;;;;;12.00;10.33;;;;;13.84;60.71;102098.81;5060620;28;45293;-61
2022/05/28 06:01:43;;;;;;;;;16.00;11.00;;;;;13.89;60.54;102102.16;5060491;28;46110;-61
2022/05/28 06:04:09;;;;;;;;;15.00;12.00;;;;;13.92;60.63;102114.53;5056948;28;47712;-60
2022/05/28 06:06:34;;;;;;;;;14.33;11.33;;;;;13.94;60.59;102112.66;5061123;28;45678;-62
2022/05/28 06:09:01;;;;;;;;;11.33;9.67;;;;;13.97;60.38;102102.69;5042083;28;45264;-61
2022/05/28 06:11:27;;;;;;;;;11.67;10.67;;;;;14.00;60.46;102107.91;5056959;28;45982;-61
2022/05/28 06:13:52;;;;;;;;;14.00;10.67;;;;;14.03;60.60;102107.78;5062330;28;45469;-61
2022/05/28 06:16:18;;;;;;;;;11.33;11.33;;;;;14.09;60.37;102109.28;5063264;28;45403;-60
2022/05/28 06:18:43;;;;;;;;;11.67;11.00;;;;;14.13;60.18;102104.69;5054643;28;63017;-61
2022/05/28 06:21:09;;;;;;;;;13.00;11.00;;;;;14.17;60.30;102106.28;5063707;28;46225;-61
2022/05/28 06:23:35;;;;;;;;;16.67;13.00;;;;;14.20;60.05;102100.81;5059219;28;45394;-61
2022/05/28 06:26:05;;;;;;;;;14.33;11.67;;;;;14.22;60.10;102102.47;5059585;28;57282;-61
2022/05/28 06:28:31;;;;;;;;;11.67;11.67;;;;;14.29;59.92;102110.22;5059680;28;45167;-61
2022/05/28 06:31:01;;;;;;;;;13.67;12.67;;;;;14.43;59.97;102109.59;5061108;28;45356;-61
2022/05/28 06:33:26;;;;;;;;;20.33;13.67;;;;;14.58;59.81;102108.91;5057557;28;45380;-61
2022/05/28 06:35:59;;;;;;;;;14.33;14.33;;;;;14.75;59.71;102105.47;5059481;28;62637;-61
2022/05/28 06:38:25;;;;;;;;;13.33;10.33;;;;;14.92;59.23;102107.34;5061190;28;45329;-61
2022/05/28 06:40:51;;;;;;;;;16.00;15.00;;;;;15.08;58.83;102103.94;5069377;28;45332;-61
2022/05/28 06:43:16;;;;;;;;;18.00;13.00;;;;;15.24;58.89;102110.28;5058878;28;45442;-61
2022/05/28 06:45:42;;;;;;;;;15.00;10.67;;;;;15.39;58.73;102100.59;5050308;28;45291;-61
2022/05/28 06:48:08;;;;;;;;;15.67;12.00;;;;;15.52;58.49;102098.19;5058110;28;61002;-61
2022/05/28 06:53:17;;;;;;;;;11.67;9.67;;;;;15.89;57.76;102107.06;5059127;28;45343;-61
2022/05/28 06:55:42;;;;;;;;;10.33;8.00;;;;;16.10;57.76;102101.50;5061175;28;45362;-61
2022/05/28 06:58:08;;;;;;;;;8.33;8.33;;;;;16.32;57.39;102106.59;5059881;28;45377;-61
2022/05/28 07:00:35;;;;;;;;;11.33;8.33;;;;;16.57;57.52;102103.47;5062992;28;45334;-60
2022/05/28 07:03:00;;;;;;;;;9.33;8.00;;;;;16.73;56.93;102092.75;5056512;28;45302;-60
2022/05/28 07:05:28;;;;;;;;;11.00;8.33;;;;;16.90;56.79;102091.84;5056598;28;59525;-60
2022/05/28 07:07:54;;;;;;;;;9.67;9.33;;;;;17.14;56.05;102089.59;5058917;28;45501;-60
2022/05/28 07:10:19;;;;;;;;;12.33;9.33;;;;;17.38;55.93;102088.22;5060171;28;45288;-60
2022/05/28 07:12:44;;;;;;;;;11.00;9.67;;;;;17.64;55.08;102084.00;5059418;28;45458;-60
2022/05/28 07:15:10;;;;;;;;;15.33;7.67;;;;;17.89;54.99;102088.78;5058017;28;60041;-59
2022/05/28 07:17:36;;;;;;;;;10.00;8.33;;;;;18.07;54.09;102085.94;5065317;28;45549;-59
2022/05/28 07:20:01;;;;;;;;;11.67;8.67;;;;;18.33;54.00;102087.03;5057460;28;66375;-60
2022/05/28 07:22:28;;;;;;;;;11.33;8.67;;;;;18.86;52.32;102079.16;5060657;28;45309;-60
2022/05/28 07:24:54;;;;;;;;;8.67;7.67;;;;;19.41;49.98;102084.59;5066120;28;45518;-60
2022/05/28 07:27:19;;;;;;;;;9.00;8.00;;;;;19.98;48.05;102076.19;5057750;28;49791;-59
2022/05/28 07:29:45;;;;;;;;;9.33;8.00;;;;;20.48;49.63;102078.09;5067537;28;46165;-60
2022/05/28 07:32:10;;;;;;;;;11.67;7.67;;;;;20.57;46.71;102068.47;5050699;28;62534;-60
2022/05/28 07:34:35;;;;;;;;;16.33;12.00;;;;;20.91;48.82;102056.09;5068266;28;56105;-60
2022/05/28 07:37:01;;;;;;;;;7.67;6.67;;;;;21.24;48.37;102065.34;5054031;28;63191;-60
2022/05/28 07:39:26;;;;;;;;;8.33;6.67;;;;;21.66;47.54;102067.63;5051824;28;46883;-60
2022/05/28 07:41:51;;;;;;;;;11.00;8.33;;;;;21.86;45.96;102066.06;5058096;28;64506;-60
2022/05/28 07:44:18;;;;;;;;;10.67;9.33;;;;;22.10;45.48;102065.13;5060692;28;45367;-60
2022/05/28 07:46:43;;;;;;;;;13.33;9.67;;;;;22.38;45.68;102066.50;5058598;28;45272;-60
2022/05/28 07:49:09;;;;;;;;;7.33;7.33;;;;;22.60;44.58;102060.19;5058943;28;57583;-60
2022/05/28 07:51:35;;;;;;;;;10.00;6.00;;;;;22.92;41.53;102062.13;5052339;28;46145;-60
2022/05/28 07:54:01;;;;;;;;;18.67;13.67;;;;;23.38;41.38;102064.72;5065137;28;45477;-60
2022/05/28 07:56:27;;;;;;;;;15.00;11.00;;;;;23.79;41.94;102063.00;5058856;28;45487;-61
2022/05/28 07:58:54;;;;;;;;;20.00;12.67;;;;;24.11;41.77;102059.34;5057294;28;45972;-60
2022/05/28 08:01:24;;;;;;;;;9.00;8.00;;;;;24.47;40.72;102045.34;5057178;28;45368;-60
2022/05/28 08:03:50;;;;;;;;;12.00;12.00;;;;;24.77;40.98;102048.03;5058492;28;45649;-60
2022/05/28 08:06:17;;;;;;;;;13.33;9.00;;;;;24.96;36.47;102045.47;5057994;28;46009;-60
2022/05/28 08:08:42;;;;;;;;;8.25;6.25;;;;;25.31;35.95;102053.09;5060309;28;47236;-60
2022/05/28 08:11:09;;;;;;;;;10.25;6.00;;;;;25.69;39.83;102054.06;5061879;28;45431;-62
2022/05/28 08:13:34;;;;;;;;;8.25;7.00;;;;;25.89;39.19;102057.63;5058917;28;45467;-62
2022/05/28 08:16:00;;;;;;;;;14.25;8.00;;;;;26.28;39.78;102053.91;5056724;28;45441;-61
2022/05/28 08:18:26;;;;;;;;;7.50;7.50;;;;;26.60;38.93;102051.78;5058849;28;46114;-62
2022/05/28 08:23:38;;;;;;;;;10.00;8.75;;;;;27.40;37.28;102060.13;5058027;28;45368;-66
2022/05/28 08:26:04;;;;;;;;;7.50;6.50;;;;;27.57;34.71;102061.13;5057560;28;45331;-50
2022/05/28 08:28:29;;;;;;;;;9.00;8.25;;;;;27.64;35.12;102059.50;5058169;28;45375;-50
2022/05/28 08:30:54;;;;;;;;;6.00;6.00;;;;;27.86;32.98;102058.09;5057990;28;66568;-51
2022/05/28 08:33:20;;;;;;;;;8.50;7.00;;;;;27.96;30.93;102059.88;5057300;28;62011;-51
2022/05/28 08:35:46;;;;;;;;;7.75;7.00;;;;;28.14;32.68;102057.94;5058243;28;45266;-49
2022/05/28 08:38:15;;;;;;;;;6.25;5.50;;;;;28.34;31.42;102054.97;5069954;28;46036;-47
2022/05/28 08:40:48;;;;;;;;;12.75;11.50;;;;;28.66;33.11;102053.41;5068232;27;45234;-51
2022/05/28 08:43:16;;;;;;;;;7.75;7.00;;;;;28.57;31.27;102051.66;5065260;28;45371;-48
2022/05/28 08:45:43;;;;;;;;;15.00;13.00;;;;;28.58;31.57;102056.06;5063189;28;45265;-49
2022/05/28 08:48:08;;;;;;;;;24.00;15.33;;;;;28.61;30.94;102044.81;5067435;28;46419;-48
2022/05/28 08:50:41;;;;;;;;;8.75;7.75;;;;;28.78;29.97;102046.59;5063046;28;45438;-49
2022/05/28 08:53:12;;;;;;;;;12.00;8.25;;;;;29.02;28.86;102042.19;5050247;28;45457;-49
2022/05/28 08:55:42;;;;;;;;;10.50;10.00;;;;;29.24;31.68;102042.56;5068980;28;45294;-53
2022/05/28 08:58:09;;;;;;;;;12.75;7.00;;;;;29.34;28.53;102043.28;5029605;28;45344;-51
2022/05/28 09:00:44;;;;;;;;;10.50;7.50;;;;;29.53;29.12;102040.19;5044127;28;45501;-50
2022/05/28 09:03:22;;;;;;;;;29.33;17.00;;;;;29.88;30.68;102031.75;5062379;28;45254;-49
2022/05/28 09:06:04;;;;;;;;;5.00;3.75;;;;;30.23;29.59;102034.22;5042804;28;47196;-50
2022/05/28 09:08:36;;;;;;;;;16.75;10.25;;;;;30.02;30.02;102035.66;5059901;28;45477;-49
2022/05/28 09:11:06;;;;;;;;;8.75;8.00;;;;;29.95;29.02;102030.03;5042084;28;45483;-51
2022/05/28 09:13:47;;;;;;;;;27.67;16.33;;;;;30.15;28.71;102030.47;5036599;28;45508;-50
2022/05/28 09:16:21;;;;;;;;;8.00;6.50;;;;;30.47;27.98;102023.16;5064937;28;45237;-49
2022/05/28 09:18:47;;;;;;;;;6.25;4.75;;;;;30.66;29.37;102021.88;5060459;28;45403;-48
2022/05/28 09:21:16;;;;;;;;;13.75;8.00;;;;;30.52;26.04;102025.38;5043504;28;45663;-48
2022/05/28 09:23:45;;;;;;;;;7.75;6.00;;;;;29.86;28.35;102020.09;5061051;28;45318;-50
2022/05/28 09:26:13;;;;;;;;;8.00;8.00;;;;;29.04;28.04;102024.56;5061542;28;45423;-50
2022/05/28 09:28:58;;;;;;;;;7.00;4.00;;;;;28.49;28.33;102025.13;5059919;28;46430;-51
2022/05/28 09:32:01;;;;;;;;;7.50;6.00;;;;;28.24;29.17;102016.81;5059945;28;45486;-49
2022/05/28 09:34:55;;;;;;;;;3.50;3.00;;;;;28.63;29.81;102018.13;5060489;28;45443;-49
2022/05/28 09:37:52;;;;;;;;;9.25;6.00;;;;;29.00;28.34;102014.13;5060760;28;45202;-52
2022/05/28 09:40:26;;;;;;;;;4.50;4.25;;;;;29.24;27.91;102002.31;5043634;28;46230;-49
2022/05/28 09:43:22;;;;;;;;;5.00;5.00;;;;;29.64;27.48;101997.84;5048269;28;45400;-52
2022/05/28 09:46:16;;;;;;;;;8.50;4.75;;;;;30.06;27.10;101992.28;5060018;28;45428;-49
2022/05/28 09:48:42;;;;;;;;;7.00;7.00;;;;;30.38;27.79;101991.28;5042494;28;45384;-50
2022/05/28 09:51:24;;;;;;;;;7.50;5.50;;;;;30.71;27.43;101982.88;5060277;28;45542;-52
2022/05/28 09:54:16;;;;;;;;;6.75;5.00;;;;;30.60;25.79;101970.44;5058411;28;45467;-50
2022/05/28 09:56:44;;;;;;;;;5.75;3.75;;;;;30.52;24.91;101976.81;5059392;28;45315;-51
2022/05/28 09:59:46;;;;;;;;;6.00;5.00;;;;;30.69;26.66;101976.72;5059916;28;45237;-53
2022/05/28 10:02:21;;;;;;;;;5.00;4.00;;;;;30.80;24.61;101973.53;5030782;28;46230;-52
2022/05/28 10:04:50;;;;;;;;;3.50;3.50;;;;;30.72;24.73;101967.28;5057224;28;45410;-52
2022/05/28 10:07:30;;;;;;;;;4.00;4.00;;;;;30.68;25.27;101969.53;5061295;28;45272;-49
2022/05/28 10:09:55;;;;;;;;;3.50;2.50;;;;;30.78;25.01;101963.78;5058818;28;46030;-49
2022/05/28 10:12:23;;;;;;;;;3.25;2.50;;;;;30.91;26.17;101964.03;5060552;28;46407;-51
2022/05/28 10:14:59;;;;;;;;;4.25;3.00;;;;;30.91;24.71;101969.53;5060050;28;45493;-53
2022/05/28 10:17:25;;;;;;;;;4.50;4.50;;;;;31.00;24.31;101962.91;5058017;28;45394;-52
2022/05/28 10:19:54;;;;;;;;;4.50;4.00;;;;;31.12;24.43;101963.38;5038281;28;45466;-51
2022/05/28 10:22:21;;;;;;;;;5.50;5.50;;;;;31.04;24.20;101960.63;5050779;28;45381;-47
2022/05/28 10:25:00;;;;;;;;;3.75;3.75;;;;;30.69;24.74;101958.34;5063427;28;45371;-51
2022/05/28 10:27:32;;;;;;;;;4.75;4.00;;;;;30.00;24.09;101958.22;5038135;28;45405;-52
2022/05/28 10:30:02;;;;;;;;;5.00;4.00;;;;;29.20;24.77;101963.47;5060317;28;45606;-52
2022/05/28 10:32:36;;;;;;;;;3.00;3.00;;;;;28.85;25.90;101965.53;5058574;28;46175;-53
2022/05/28 10:35:15;;;;;;;;;2.25;2.25;;;;;29.01;25.61;101958.34;5048868;28;45364;-51
2022/05/28 10:37:40;;;;;;;;;2.75;2.75;;;;;28.99;25.58;101950.28;5059823;28;45236;-50
2022/05/28 10:40:24;;;;;;;;;4.50;3.25;;;;;28.82;25.28;101954.91;5065065;28;61774;-50
2022/05/28 10:43:16;;;;;;;;;4.25;3.25;;;;;28.52;25.86;101950.91;5062282;28;45419;-50
2022/05/28 10:45:46;;;;;;;;;4.50;3.00;;;;;27.93;26.68;101959.06;5060455;28;45214;-52
2022/05/28 10:48:39;;;;;;;;;4.75;2.75;;;;;27.26;26.20;101955.03;5057119;28;45572;-51
2022/05/28 10:51:28;;;;;;;;;3.00;2.00;;;;;26.49;27.95;101955.50;5057977;28;46795;-51
2022/05/28 10:54:19;;;;;;;;;3.00;2.50;;;;;25.84;29.12;101950.94;5031935;28;45495;-49
2022/05/28 10:57:07;;;;;;;;;4.50;3.50;;;;;25.27;29.82;101946.34;5061235;28;45447;-52
2022/05/28 11:00:11;;;;;;;;;6.25;3.25;;;;;25.48;29.69;101944.47;5062859;28;45377;-52
2022/05/28 11:02:44;;;;;;;;;3.75;2.50;;;;;25.55;29.48;101938.28;5052920;28;45782;-48
2022/05/28 11:05:34;;;;;;;;;4.00;2.75;;;;;25.36;30.09;101936.47;5057049;28;46362;-51
2022/05/28 11:08:22;;;;;;;;;3.00;1.25;;;;;25.14;29.51;101934.91;5056057;28;45323;-49
2022/05/28 11:11:12;;;;;;;;;4.00;3.25;;;;;24.84;29.66;101944.09;5059304;28;45371;-48
2022/05/28 11:14:07;;;;;;;;;5.67;4.67;;;;;24.52;31.60;101937.88;5059323;28;45303;-50
2022/05/28 11:17:10;;;;;;;;;8.00;6.67;;;;;24.26;30.30;101935.69;5041656;28;45522;-56
2022/05/28 11:20:05;;;;;;;;;5.33;5.33;;;;;24.18;30.13;101931.94;5054095;28;45625;-56
2022/05/28 11:22:36;;;;;;;;;10.00;8.67;;;;;24.68;30.16;101933.75;5041861;28;45983;-56
2022/05/28 11:25:33;;;;;;;;;14.33;11.67;;;;;25.50;29.86;101926.97;5058404;28;45173;-56
2022/05/28 11:28:20;;;;;;;;;9.00;9.00;;;;;25.70;28.69;101922.31;5050314;28;45233;-51
2022/05/28 11:30:48;;;;;;;;;5.33;5.33;;;;;25.42;28.68;101918.66;5065755;28;45489;-55
2022/05/28 11:33:19;;;;;;;;;7.00;6.00;;;;;25.14;28.60;101917.72;5058504;28;45410;-52
2022/05/28 11:36:20;;;;;;;;;17.33;13.00;;;;;24.68;28.87;101921.03;5057476;28;45609;-52